createdAt,value
2022-12-05T00:03:37.157Z,98121.31
2022-12-05T00:08:39.370Z,98102.28
2022-12-05T00:13:41.682Z,98111.28
2022-12-05T00:18:43.953Z,98111.41
2022-12-05T00:23:46.250Z,98122.97
2022-12-05T00:28:48.254Z,98134.44
2022-12-05T00:33:50.524Z,98126.81
2022-12-05T00:38:53.233Z,98125.03
2022-12-05T00:43:56.689Z,98120.75
2022-12-05T00:49:00.475Z,98123.88
2022-12-05T00:54:05.718Z,98134.66
2022-12-05T00:59:09.147Z,98124.34
2022-12-05T01:04:14.248Z,98121.44
2022-12-05T01:09:18.555Z,98135.34
2022-12-05T01:14:22.944Z,98140.06
2022-12-05T01:19:31.820Z,98138.50
2022-12-05T01:24:33.651Z,98141.09
2022-12-05T01:29:35.472Z,98130.63
2022-12-05T01:34:37.288Z,98133.44
2022-12-05T01:39:39.072Z,98131.88
2022-12-05T01:44:49.918Z,98136.03
2022-12-05T01:49:51.799Z,98138.38
2022-12-05T01:54:59.651Z,98134.09
2022-12-05T02:00:08.549Z,98133.00
2022-12-05T02:05:21.253Z,98131.28
2022-12-05T02:10:23.413Z,98138.94
2022-12-05T02:15:56.805Z,98129.72
2022-12-05T02:21:07.899Z,98137.38
2022-12-05T02:26:40.647Z,98140.97
2022-12-05T02:32:05.825Z,98138.72
2022-12-05T02:37:33.994Z,98144.22
2022-12-05T02:43:01.137Z,98130.41
2022-12-05T02:48:05.560Z,98136.25
2022-12-05T02:53:11.520Z,98139.41
2022-12-05T02:58:19.612Z,98132.25
2022-12-05T03:03:23.468Z,98120.97
2022-12-05T03:08:31.049Z,98126.34
2022-12-05T03:13:49.312Z,98132.78
2022-12-05T03:18:56.846Z,98128.84
2022-12-05T03:24:04.860Z,98128.38
2022-12-05T03:29:18.565Z,98133.00
2022-12-05T03:34:43.937Z,98135.81
2022-12-05T03:39:53.975Z,98146.91
2022-12-05T03:45:18.030Z,98147.03
2022-12-05T03:50:26.791Z,98145.47
2022-12-05T03:55:33.740Z,98138.94
2022-12-05T04:00:40.980Z,98137.38
2022-12-05T04:05:52.622Z,98144.47
2022-12-05T04:10:59.870Z,98147.47
2022-12-05T04:16:26.772Z,98146.69
2022-12-05T04:21:39.661Z,98157.38
2022-12-05T04:26:46.937Z,98156.25
2022-12-05T04:31:54.111Z,98148.72
2022-12-05T04:37:11.831Z,98152.31
2022-12-05T04:42:19.551Z,98159.44
2022-12-05T04:47:27.127Z,98157.72
2022-12-05T04:52:30.094Z,98160.09
2022-12-05T04:57:40.546Z,98178.66
2022-12-05T05:02:50.635Z,98186.28
2022-12-05T05:07:53.341Z,98171.81
2022-12-05T05:12:55.430Z,98183.25
2022-12-05T05:17:57.264Z,98193.72
2022-12-05T05:22:59.120Z,98180.88
2022-12-05T05:28:00.987Z,98188.00
2022-12-05T05:33:02.825Z,98189.44
2022-12-05T05:38:04.902Z,98185.72
2022-12-05T05:43:06.748Z,98201.94
2022-12-05T05:48:08.560Z,98208.78
2022-12-05T05:53:10.389Z,98212.72
2022-12-05T05:58:12.294Z,98213.41
2022-12-05T06:03:14.212Z,98212.09
2022-12-05T06:08:16.150Z,98214.34
2022-12-05T06:13:17.994Z,98212.09
2022-12-05T06:18:19.813Z,98222.22
2022-12-05T06:23:22.157Z,98224.38
2022-12-05T06:28:25.261Z,98229.75
2022-12-05T06:33:28.717Z,98237.19
2022-12-05T06:38:30.630Z,98252.06
2022-12-05T06:43:32.924Z,98257.22
2022-12-05T06:48:35.732Z,98268.38
2022-12-05T06:53:38.135Z,98277.47
2022-12-05T06:58:44.623Z,98279.38
2022-12-05T07:03:49.176Z,98269.06
2022-12-05T07:08:51.088Z,98274.56
2022-12-05T07:13:52.925Z,98286.16
2022-12-05T07:18:55.272Z,98280.50
2022-12-05T07:23:57.172Z,98281.31
2022-12-05T07:28:58.986Z,98280.50
2022-12-05T07:34:00.809Z,98294.00
2022-12-05T07:39:03.143Z,98293.69
2022-12-05T07:44:05.124Z,98291.47
2022-12-05T07:49:08.281Z,98293.31
2022-12-05T07:54:10.172Z,98301.06
2022-12-05T07:59:12.039Z,98309.75
2022-12-05T08:04:15.833Z,98312.00
2022-12-05T08:09:17.894Z,98304.16
2022-12-05T08:14:20.254Z,98307.63
2022-12-05T08:19:22.067Z,98313.22
2022-12-05T08:24:25.159Z,98322.34
2022-12-05T08:29:27.758Z,98321.75
2022-12-05T08:34:29.711Z,98339.06
2022-12-05T08:39:38.014Z,98324.78
2022-12-05T08:44:40.366Z,98329.50
2022-12-05T08:49:42.207Z,98322.47
2022-12-05T08:54:43.966Z,98331.34
2022-12-05T08:59:47.095Z,98330.53
2022-12-05T09:04:54.074Z,98336.16
2022-12-05T09:09:56.300Z,98351.09
2022-12-05T09:14:58.258Z,98347.66
2022-12-05T09:20:00.787Z,98359.91
2022-12-05T09:25:02.584Z,98374.28
2022-12-05T09:30:05.951Z,98379.44
2022-12-05T09:35:08.165Z,98375.53
2022-12-05T09:40:17.627Z,98370.13
2022-12-05T09:45:44.641Z,98371.91
2022-12-05T09:51:03.469Z,98373.69
2022-12-05T09:56:12.377Z,98370.72
2022-12-05T10:01:29.079Z,98381.31
2022-12-05T10:06:45.678Z,98381.06
2022-12-05T10:11:53.682Z,98387.69
2022-12-05T10:16:59.180Z,98387.31
2022-12-05T10:28:48.247Z,98388.31
2022-12-05T10:33:58.785Z,98378.34
2022-12-05T10:39:00.869Z,98375.44
2022-12-05T10:44:02.731Z,98370.84
2022-12-05T10:49:11.263Z,98373.34
2022-12-05T10:54:23.784Z,98371.19
2022-12-05T10:59:44.262Z,98378.16
2022-12-05T11:04:47.667Z,98368.88
2022-12-05T11:09:49.634Z,98367.97
2022-12-05T11:15:01.214Z,98372.63
2022-12-05T11:20:23.173Z,98363.13
2022-12-05T11:25:35.399Z,98361.81
2022-12-05T11:30:37.255Z,98364.94
2022-12-05T11:41:54.477Z,98364.34
2022-12-05T11:46:56.299Z,98353.72
2022-12-05T11:52:15.934Z,98360.56
2022-12-05T11:57:32.923Z,98360.97
2022-12-05T12:02:44.068Z,98363.56
2022-12-05T12:08:03.767Z,98371.13
2022-12-05T12:13:08.765Z,98357.81
2022-12-05T12:18:47.993Z,98362.56
2022-12-05T12:23:49.850Z,98357.16
2022-12-05T12:29:27.550Z,98343.63
2022-12-05T12:34:49.608Z,98333.00
2022-12-05T12:40:13.386Z,98325.28
2022-12-05T12:45:33.804Z,98330.88
2022-12-05T12:50:44.099Z,98326.41
2022-12-05T12:56:14.176Z,98323.06
2022-12-05T13:01:44.480Z,98320.00
2022-12-05T13:06:59.632Z,98328.91
2022-12-05T13:12:17.601Z,98326.00
2022-12-05T13:17:22.580Z,98329.19
2022-12-05T13:22:27.573Z,98327.38
2022-12-05T13:27:29.580Z,98333.47
2022-12-05T13:32:37.269Z,98339.13
2022-12-05T13:38:06.075Z,98354.66
2022-12-05T13:43:10.081Z,98354.66
2022-12-05T13:48:31.606Z,98363.88
2022-12-05T13:53:44.087Z,98360.06
2022-12-05T13:58:51.474Z,98358.47
2022-12-05T14:04:03.501Z,98360.63
2022-12-05T14:09:17.530Z,98353.75
2022-12-05T14:15:01.654Z,98355.34
2022-12-05T14:20:29.930Z,98358.34
2022-12-05T14:25:45.500Z,98356.47
2022-12-05T14:31:12.390Z,98352.50
2022-12-05T14:36:18.880Z,98360.63
2022-12-05T14:41:31.617Z,98359.81
2022-12-05T14:46:34.422Z,98366.66
2022-12-05T14:51:36.217Z,98365.22
2022-12-05T14:56:53.170Z,98360.63
2022-12-05T15:01:58.886Z,98360.69
2022-12-05T15:07:13.102Z,98365.75
2022-12-05T15:12:20.444Z,98360.91
2022-12-05T15:17:27.096Z,98375.09
2022-12-05T15:22:30.748Z,98377.91
2022-12-05T15:27:32.821Z,98375.84
2022-12-05T15:32:35.182Z,98379.94
2022-12-05T15:37:58.434Z,98367.22
2022-12-05T15:43:00.512Z,98382.97
2022-12-05T15:48:05.383Z,98371.38
2022-12-05T15:53:17.562Z,98375.66
2022-12-05T15:58:42.279Z,98383.09
2022-12-05T16:04:27.778Z,98397.25
2022-12-05T16:09:34.261Z,98392.31
2022-12-05T16:20:16.763Z,98397.72
2022-12-05T16:25:26.705Z,98395.16
2022-12-05T16:30:29.947Z,98403.38
2022-12-05T16:35:39.338Z,98413.72
2022-12-05T16:40:53.333Z,98400.53
2022-12-05T16:46:18.034Z,98405.16
2022-12-05T16:51:22.364Z,98402.31
2022-12-05T16:56:24.228Z,98404.44
2022-12-05T17:01:27.443Z,98403.38
2022-12-05T17:06:29.458Z,98405.09
2022-12-05T17:11:34.228Z,98403.78
2022-12-05T17:16:36.223Z,98407.41
2022-12-05T17:21:40.214Z,98398.66
2022-12-05T17:26:42.085Z,98404.06
2022-12-05T17:31:44.132Z,98407.88
2022-12-05T17:36:46.541Z,98404.06
2022-12-05T17:41:48.426Z,98409.44
2022-12-05T17:46:50.604Z,98413.91
2022-12-05T17:52:20.430Z,98413.00
2022-12-05T17:57:16.012Z,98420.44
2022-12-05T18:02:19.924Z,98427.75
2022-12-05T18:07:22.215Z,98425.78
2022-12-05T18:12:24.131Z,98435.78
2022-12-05T18:17:27.203Z,98431.53
2022-12-05T18:22:29.012Z,98435.88
2022-12-05T18:27:31.610Z,98433.03
2022-12-05T18:32:33.566Z,98431.00
2022-12-05T18:37:37.058Z,98425.63
2022-12-05T18:42:38.903Z,98437.53
2022-12-05T18:47:40.697Z,98440.41
2022-12-05T18:52:42.575Z,98458.63
2022-12-05T18:57:44.527Z,98453.41
2022-12-05T19:02:48.391Z,98453.34
2022-12-05T19:07:53.486Z,98453.03
2022-12-05T19:12:56.145Z,98455.63
2022-12-05T19:17:58.096Z,98456.06
2022-12-05T19:23:01.244Z,98460.34
2022-12-05T19:28:03.400Z,98450.56
2022-12-05T19:33:05.284Z,98446.88
2022-12-05T19:38:07.370Z,98445.00
2022-12-05T19:43:09.215Z,98452.91
2022-12-05T19:48:11.159Z,98445.63
2022-12-05T19:53:12.999Z,98445.94
2022-12-05T19:58:14.885Z,98439.00
2022-12-05T20:03:16.894Z,98449.47
2022-12-05T20:08:18.802Z,98448.22
2022-12-05T20:13:47.886Z,98455.38
2022-12-05T20:18:43.161Z,98454.91
2022-12-05T20:23:45.717Z,98449.25
2022-12-05T20:28:47.812Z,98454.66
2022-12-05T20:33:52.032Z,98438.38
2022-12-05T20:39:08.187Z,98436.50
2022-12-05T20:44:12.050Z,98438.22
2022-12-05T20:49:13.946Z,98426.44
2022-12-05T20:54:18.401Z,98427.88
2022-12-05T20:59:20.337Z,98421.28
2022-12-05T21:04:22.344Z,98424.16
2022-12-05T21:09:28.640Z,98420.53
2022-12-05T21:14:31.006Z,98429.25
2022-12-05T21:19:33.010Z,98422.94
2022-12-05T21:24:34.961Z,98417.84
2022-12-05T21:29:36.817Z,98421.19
2022-12-05T21:34:39.164Z,98424.97
2022-12-05T21:39:41.015Z,98428.63
2022-12-05T21:44:42.913Z,98422.44
2022-12-05T21:49:45.026Z,98414.25
2022-12-05T21:54:46.897Z,98408.72
2022-12-05T21:59:48.718Z,98409.19
2022-12-05T22:04:50.541Z,98416.47
2022-12-05T22:09:52.362Z,98419.47
2022-12-05T22:14:54.489Z,98411.41
2022-12-05T22:19:57.451Z,98416.78
2022-12-05T22:24:59.668Z,98413.94
2022-12-05T22:30:01.990Z,98410.63
2022-12-05T22:35:04.598Z,98399.41
2022-12-05T22:40:07.171Z,98383.22
2022-12-05T22:45:09.431Z,98380.53
2022-12-05T22:50:11.463Z,98382.78
2022-12-05T22:55:13.307Z,98388.78
2022-12-05T23:00:15.403Z,98381.81
2022-12-05T23:05:17.279Z,98374.69
2022-12-05T23:10:19.100Z,98372.00
2022-12-05T23:15:21.053Z,98378.19
2022-12-05T23:20:23.013Z,98374.50
2022-12-05T23:25:24.956Z,98360.56
2022-12-05T23:30:26.844Z,98345.84
2022-12-05T23:35:28.768Z,98340.97
2022-12-05T23:40:30.793Z,98345.09
2022-12-05T23:45:32.670Z,98333.53
2022-12-05T23:50:34.682Z,98328.16
2022-12-05T23:55:36.860Z,98335.59
